Springlake, TX (79082)

3:48 PM CDT on July 04, 2015 (GMT -0500)
WT_Meso | | Change Station
CLOSE
Current Station
Personal Weather Station
Location: Olton, TX
Elevation: 3565 ft
Nearby Weather Stations

Elev 3565 ft 34.09 °N, 102.12 °W | Updated 23 minutes ago

Partly Cloudy
Partly Cloudy
85 °F
Feels Like 85 °F
N
12
Wind Variable Wind from SSE
Gusts 17.0 mph

Today
High -- | Low -- °F
--% Chance of Precip.
Yesterday
High -- | Low -- °F
Precip. -- in
6:42 AM 9:04 PM
Waning Gibbous, 90% visible
Pressure 30.02 in
Visibility 10.0 miles
Clouds Scattered Clouds 5500 ft
Scattered Clouds 8500 ft
Heat Index 85 °F
Dew Point 60 °F
Humidity 44%
Rainfall in
Snow Depth Not available.
UV 9 out of 12
Pollen 3.20 out of 12
Air Quality Not available.
Flu Activity Not available.
METAR KPVW 042035Z AUTO 21007KT 180V240 10SM SCT055 SCT085 31/19 A3002 RMK AO2 T03110194

More Conditions Fewer Conditions

Pressure 30.02 in
Visibility 10.0 miles
Clouds Scattered Clouds 5500 ft
Scattered Clouds 8500 ft
Heat Index 85 °F
Dew Point 60 °F
Humidity 44%
Rainfall in
Snow Depth Not available.
UV 9 out of 12
Pollen 3.20 out of 12
Air Quality Not available.
Flu Activity Not available.
METAR KPVW 042035Z AUTO 21007KT 180V240 10SM SCT055 SCT085 31/19 A3002 RMK AO2 T03110194

More Conditions Fewer Conditions

10-Day Weather Forecast

×

Almanac

Astronomy

Jul. 04, 2015 Rise Set
Actual Time
Civil Twilight
Nautical Twilight
Astronomical Twilight
Moon
Length of Visible Light
Length of Day
Tomorrow will be .
, % of the Moon is Illuminated

Today's Extremes

State Highs State Lows

Community

WunderPhotos

Upload Photos

1,835,091 photos uploaded!

WunderBlogs® & News

Nearby

Air Quality

  Air Quality AQ Index Pollutant
Not available.

Snow Depth

Station Depth Elevation

Earthquake Activity

City Distance Mag. Time & Date
Minimum magnitude displayed is 2.5.

Coastal Water Temperatures

Place Temperature

Stations

Nearby Weather Stations

Station Location Temp. Windchill Dew Point Humidity Wind Precip. Elev Updated Type